sensor_id;sensor_type;location;lat;lon;timestamp;P1;durP1;ratioP1;P2;durP2;ratioP2
16314;SDS011;8266;52.150;4.768;2024-02-26T00:00:28;4.30;;;3.97;;
16314;SDS011;8266;52.150;4.768;2024-02-26T00:02:55;4.53;;;4.00;;
16314;SDS011;8266;52.150;4.768;2024-02-26T00:05:22;4.85;;;4.20;;
16314;SDS011;8266;52.150;4.768;2024-02-26T00:07:51;4.50;;;4.20;;
16314;SDS011;8266;52.150;4.768;2024-02-26T00:10:18;5.15;;;4.40;;
16314;SDS011;8266;52.150;4.768;2024-02-26T00:12:45;6.00;;;4.65;;
16314;SDS011;8266;52.150;4.768;2024-02-26T00:15:12;4.80;;;4.15;;
16314;SDS011;8266;52.150;4.768;2024-02-26T00:17:39;4.85;;;4.43;;
16314;SDS011;8266;52.150;4.768;2024-02-26T00:20:09;4.47;;;4.18;;
16314;SDS011;8266;52.150;4.768;2024-02-26T00:22:39;5.00;;;4.50;;
16314;SDS011;8266;52.150;4.768;2024-02-26T00:25:08;4.45;;;4.05;;
16314;SDS011;8266;52.150;4.768;2024-02-26T00:27:37;4.25;;;3.85;;
16314;SDS011;8266;52.150;4.768;2024-02-26T00:30:07;4.55;;;4.15;;
16314;SDS011;8266;52.150;4.768;2024-02-26T00:32:34;4.18;;;3.78;;
16314;SDS011;8266;52.150;4.768;2024-02-26T00:35:02;4.03;;;3.60;;
16314;SDS011;8266;52.150;4.768;2024-02-26T00:37:30;5.03;;;4.00;;
16314;SDS011;8266;52.150;4.768;2024-02-26T00:39:59;4.40;;;4.00;;
16314;SDS011;8266;52.150;4.768;2024-02-26T00:42:27;4.85;;;4.32;;
16314;SDS011;8266;52.150;4.768;2024-02-26T00:44:54;4.82;;;3.95;;
16314;SDS011;8266;52.150;4.768;2024-02-26T00:47:21;4.05;;;3.65;;
16314;SDS011;8266;52.150;4.768;2024-02-26T00:49:48;4.05;;;3.75;;
16314;SDS011;8266;52.150;4.768;2024-02-26T00:52:15;6.05;;;4.25;;
16314;SDS011;8266;52.150;4.768;2024-02-26T00:54:42;4.03;;;3.50;;
16314;SDS011;8266;52.150;4.768;2024-02-26T00:57:09;3.97;;;3.63;;
16314;SDS011;8266;52.150;4.768;2024-02-26T00:59:38;5.00;;;4.10;;
16314;SDS011;8266;52.150;4.768;2024-02-26T01:02:05;4.00;;;3.63;;
16314;SDS011;8266;52.150;4.768;2024-02-26T01:04:32;3.83;;;3.53;;
16314;SDS011;8266;52.150;4.768;2024-02-26T01:07:02;3.78;;;3.42;;
16314;SDS011;8266;52.150;4.768;2024-02-26T01:09:30;4.43;;;4.03;;
16314;SDS011;8266;52.150;4.768;2024-02-26T01:11:57;5.80;;;4.22;;
16314;SDS011;8266;52.150;4.768;2024-02-26T01:14:24;4.70;;;4.30;;
16314;SDS011;8266;52.150;4.768;2024-02-26T01:16:53;5.10;;;4.60;;
16314;SDS011;8266;52.150;4.768;2024-02-26T01:19:20;4.65;;;4.25;;
16314;SDS011;8266;52.150;4.768;2024-02-26T01:21:47;5.82;;;5.32;;
16314;SDS011;8266;52.150;4.768;2024-02-26T01:24:14;5.75;;;5.25;;
16314;SDS011;8266;52.150;4.768;2024-02-26T01:26:41;5.65;;;5.13;;
16314;SDS011;8266;52.150;4.768;2024-02-26T01:29:08;5.75;;;5.03;;
16314;SDS011;8266;52.150;4.768;2024-02-26T01:31:35;5.57;;;5.07;;
16314;SDS011;8266;52.150;4.768;2024-02-26T01:34:04;6.05;;;5.22;;
16314;SDS011;8266;52.150;4.768;2024-02-26T01:36:31;5.88;;;5.38;;
16314;SDS011;8266;52.150;4.768;2024-02-26T01:38:59;7.18;;;5.55;;
16314;SDS011;8266;52.150;4.768;2024-02-26T01:41:28;6.57;;;5.97;;
16314;SDS011;8266;52.150;4.768;2024-02-26T01:43:55;6.28;;;5.68;;
16314;SDS011;8266;52.150;4.768;2024-02-26T01:46:22;6.80;;;6.20;;
16314;SDS011;8266;52.150;4.768;2024-02-26T01:48:49;6.72;;;6.13;;
16314;SDS011;8266;52.150;4.768;2024-02-26T01:51:18;6.85;;;6.22;;
16314;SDS011;8266;52.150;4.768;2024-02-26T01:53:45;9.30;;;7.38;;
16314;SDS011;8266;52.150;4.768;2024-02-26T01:56:12;7.43;;;6.70;;
16314;SDS011;8266;52.150;4.768;2024-02-26T01:58:43;9.95;;;7.85;;
16314;SDS011;8266;52.150;4.768;2024-02-26T02:01:10;8.98;;;7.78;;
16314;SDS011;8266;52.150;4.768;2024-02-26T02:03:38;8.45;;;7.65;;
16314;SDS011;8266;52.150;4.768;2024-02-26T02:06:06;9.07;;;8.27;;
16314;SDS011;8266;52.150;4.768;2024-02-26T02:08:36;8.35;;;7.57;;
16314;SDS011;8266;52.150;4.768;2024-02-26T02:11:04;7.88;;;7.13;;
16314;SDS011;8266;52.150;4.768;2024-02-26T02:13:31;9.05;;;7.97;;
16314;SDS011;8266;52.150;4.768;2024-02-26T02:15:58;8.75;;;7.32;;
16314;SDS011;8266;52.150;4.768;2024-02-26T02:18:25;8.63;;;7.82;;
16314;SDS011;8266;52.150;4.768;2024-02-26T02:20:54;8.13;;;7.43;;
16314;SDS011;8266;52.150;4.768;2024-02-26T02:23:24;7.80;;;7.10;;
16314;SDS011;8266;52.150;4.768;2024-02-26T02:25:51;7.85;;;6.95;;
16314;SDS011;8266;52.150;4.768;2024-02-26T02:28:20;7.97;;;7.20;;
16314;SDS011;8266;52.150;4.768;2024-02-26T02:30:47;8.52;;;7.70;;
16314;SDS011;8266;52.150;4.768;2024-02-26T02:33:15;8.05;;;7.25;;
16314;SDS011;8266;52.150;4.768;2024-02-26T02:35:42;6.90;;;6.30;;
16314;SDS011;8266;52.150;4.768;2024-02-26T02:38:12;7.10;;;6.43;;
16314;SDS011;8266;52.150;4.768;2024-02-26T02:40:39;7.47;;;6.75;;
16314;SDS011;8266;52.150;4.768;2024-02-26T02:43:06;8.23;;;7.43;;
16314;SDS011;8266;52.150;4.768;2024-02-26T02:45:33;7.50;;;6.78;;
16314;SDS011;8266;52.150;4.768;2024-02-26T02:48:00;8.25;;;7.00;;
16314;SDS011;8266;52.150;4.768;2024-02-26T02:50:27;7.57;;;6.80;;
16314;SDS011;8266;52.150;4.768;2024-02-26T02:52:55;6.85;;;6.25;;
16314;SDS011;8266;52.150;4.768;2024-02-26T02:55:22;7.95;;;6.78;;
16314;SDS011;8266;52.150;4.768;2024-02-26T02:57:49;7.38;;;6.68;;
16314;SDS011;8266;52.150;4.768;2024-02-26T03:00:16;7.53;;;6.75;;
16314;SDS011;8266;52.150;4.768;2024-02-26T03:02:44;8.52;;;7.68;;
16314;SDS011;8266;52.150;4.768;2024-02-26T03:05:11;8.13;;;7.32;;
16314;SDS011;8266;52.150;4.768;2024-02-26T03:07:38;7.43;;;6.72;;
16314;SDS011;8266;52.150;4.768;2024-02-26T03:10:06;7.43;;;6.65;;
16314;SDS011;8266;52.150;4.768;2024-02-26T03:12:35;8.30;;;7.50;;
16314;SDS011;8266;52.150;4.768;2024-02-26T03:15:02;8.48;;;7.68;;
16314;SDS011;8266;52.150;4.768;2024-02-26T03:17:36;8.25;;;7.45;;
16314;SDS011;8266;52.150;4.768;2024-02-26T03:20:03;7.95;;;7.20;;
16314;SDS011;8266;52.150;4.768;2024-02-26T03:22:33;9.82;;;8.85;;
16314;SDS011;8266;52.150;4.768;2024-02-26T03:25:00;9.38;;;8.48;;
16314;SDS011;8266;52.150;4.768;2024-02-26T03:27:27;8.65;;;7.85;;
16314;SDS011;8266;52.150;4.768;2024-02-26T03:29:56;8.52;;;7.72;;
16314;SDS011;8266;52.150;4.768;2024-02-26T03:32:23;9.95;;;9.02;;
16314;SDS011;8266;52.150;4.768;2024-02-26T03:34:50;9.73;;;8.82;;
16314;SDS011;8266;52.150;4.768;2024-02-26T03:37:19;9.98;;;9.07;;
16314;SDS011;8266;52.150;4.768;2024-02-26T03:39:46;10.68;;;9.68;;
16314;SDS011;8266;52.150;4.768;2024-02-26T03:42:13;10.18;;;9.15;;
16314;SDS011;8266;52.150;4.768;2024-02-26T03:44:41;9.93;;;9.02;;
16314;SDS011;8266;52.150;4.768;2024-02-26T03:47:10;10.80;;;9.70;;
16314;SDS011;8266;52.150;4.768;2024-02-26T03:49:37;11.70;;;9.02;;
16314;SDS011;8266;52.150;4.768;2024-02-26T03:52:04;10.20;;;9.25;;
16314;SDS011;8266;52.150;4.768;2024-02-26T03:54:31;10.05;;;8.80;;
16314;SDS011;8266;52.150;4.768;2024-02-26T03:56:59;9.93;;;9.02;;
16314;SDS011;8266;52.150;4.768;2024-02-26T03:59:28;10.63;;;9.57;;
16314;SDS011;8266;52.150;4.768;2024-02-26T04:01:55;10.98;;;9.43;;
16314;SDS011;8266;52.150;4.768;2024-02-26T04:04:24;10.00;;;8.85;;
16314;SDS011;8266;52.150;4.768;2024-02-26T04:06:51;10.70;;;9.60;;
16314;SDS011;8266;52.150;4.768;2024-02-26T04:09:18;9.27;;;8.38;;
16314;SDS011;8266;52.150;4.768;2024-02-26T04:11:45;10.85;;;9.75;;
16314;SDS011;8266;52.150;4.768;2024-02-26T04:14:13;10.65;;;9.65;;
16314;SDS011;8266;52.150;4.768;2024-02-26T04:16:40;9.65;;;8.75;;
16314;SDS011;8266;52.150;4.768;2024-02-26T04:19:07;10.45;;;9.45;;
16314;SDS011;8266;52.150;4.768;2024-02-26T04:21:35;11.00;;;9.82;;
16314;SDS011;8266;52.150;4.768;2024-02-26T04:24:03;10.93;;;9.82;;
16314;SDS011;8266;52.150;4.768;2024-02-26T04:26:30;10.38;;;9.40;;
16314;SDS011;8266;52.150;4.768;2024-02-26T04:28:57;10.85;;;9.75;;
16314;SDS011;8266;52.150;4.768;2024-02-26T04:31:24;9.70;;;8.77;;
16314;SDS011;8266;52.150;4.768;2024-02-26T04:33:51;10.32;;;9.43;;
16314;SDS011;8266;52.150;4.768;2024-02-26T04:36:18;9.75;;;8.75;;
16314;SDS011;8266;52.150;4.768;2024-02-26T04:38:47;10.75;;;9.63;;
16314;SDS011;8266;52.150;4.768;2024-02-26T04:41:14;11.18;;;10.18;;
16314;SDS011;8266;52.150;4.768;2024-02-26T04:43:41;10.82;;;9.82;;
16314;SDS011;8266;52.150;4.768;2024-02-26T04:46:08;10.77;;;9.65;;
16314;SDS011;8266;52.150;4.768;2024-02-26T04:48:36;10.48;;;9.27;;
16314;SDS011;8266;52.150;4.768;2024-02-26T04:51:03;11.13;;;9.95;;
16314;SDS011;8266;52.150;4.768;2024-02-26T04:53:31;9.65;;;8.68;;
16314;SDS011;8266;52.150;4.768;2024-02-26T04:55:59;11.00;;;9.38;;
16314;SDS011;8266;52.150;4.768;2024-02-26T04:58:26;11.93;;;10.43;;
16314;SDS011;8266;52.150;4.768;2024-02-26T05:00:54;10.82;;;9.73;;
16314;SDS011;8266;52.150;4.768;2024-02-26T05:03:21;10.93;;;9.70;;
16314;SDS011;8266;52.150;4.768;2024-02-26T05:05:49;11.07;;;9.77;;
16314;SDS011;8266;52.150;4.768;2024-02-26T05:08:16;10.85;;;9.75;;
16314;SDS011;8266;52.150;4.768;2024-02-26T05:10:44;11.65;;;10.45;;
16314;SDS011;8266;52.150;4.768;2024-02-26T05:13:13;10.75;;;9.75;;
16314;SDS011;8266;52.150;4.768;2024-02-26T05:15:43;10.88;;;9.77;;
16314;SDS011;8266;52.150;4.768;2024-02-26T05:18:12;10.63;;;9.57;;
16314;SDS011;8266;52.150;4.768;2024-02-26T05:20:39;11.85;;;10.45;;
16314;SDS011;8266;52.150;4.768;2024-02-26T05:23:06;12.63;;;10.90;;
16314;SDS011;8266;52.150;4.768;2024-02-26T05:25:33;11.48;;;10.27;;
16314;SDS011;8266;52.150;4.768;2024-02-26T05:28:00;11.45;;;9.98;;
16314;SDS011;8266;52.150;4.768;2024-02-26T05:30:29;12.10;;;10.90;;
16314;SDS011;8266;52.150;4.768;2024-02-26T05:32:56;11.60;;;10.40;;
16314;SDS011;8266;52.150;4.768;2024-02-26T05:35:23;11.68;;;10.45;;
16314;SDS011;8266;52.150;4.768;2024-02-26T05:37:51;11.40;;;10.20;;
16314;SDS011;8266;52.150;4.768;2024-02-26T05:40:19;11.98;;;10.73;;
16314;SDS011;8266;52.150;4.768;2024-02-26T05:42:47;12.45;;;10.68;;
16314;SDS011;8266;52.150;4.768;2024-02-26T05:45:14;13.15;;;11.05;;
16314;SDS011;8266;52.150;4.768;2024-02-26T05:47:43;13.43;;;11.85;;
16314;SDS011;8266;52.150;4.768;2024-02-26T05:50:10;13.45;;;11.60;;
16314;SDS011;8266;52.150;4.768;2024-02-26T05:52:38;14.35;;;11.85;;
16314;SDS011;8266;52.150;4.768;2024-02-26T05:55:05;14.50;;;12.70;;
16314;SDS011;8266;52.150;4.768;2024-02-26T05:57:33;13.10;;;11.35;;
16314;SDS011;8266;52.150;4.768;2024-02-26T06:00:00;14.52;;;12.00;;
16314;SDS011;8266;52.150;4.768;2024-02-26T06:02:29;15.32;;;13.57;;
16314;SDS011;8266;52.150;4.768;2024-02-26T06:04:58;15.50;;;13.18;;
16314;SDS011;8266;52.150;4.768;2024-02-26T06:07:25;16.77;;;13.75;;
16314;SDS011;8266;52.150;4.768;2024-02-26T06:09:52;15.80;;;13.00;;
16314;SDS011;8266;52.150;4.768;2024-02-26T06:12:19;15.05;;;13.25;;
16314;SDS011;8266;52.150;4.768;2024-02-26T06:14:47;15.43;;;13.07;;
16314;SDS011;8266;52.150;4.768;2024-02-26T06:17:14;17.33;;;14.20;;
16314;SDS011;8266;52.150;4.768;2024-02-26T06:19:41;19.10;;;14.23;;
16314;SDS011;8266;52.150;4.768;2024-02-26T06:22:10;17.13;;;14.68;;
16314;SDS011;8266;52.150;4.768;2024-02-26T06:24:37;16.73;;;14.27;;
16314;SDS011;8266;52.150;4.768;2024-02-26T06:27:04;20.27;;;16.00;;
16314;SDS011;8266;52.150;4.768;2024-02-26T06:29:31;18.52;;;15.98;;
16314;SDS011;8266;52.150;4.768;2024-02-26T06:31:58;17.38;;;15.02;;
16314;SDS011;8266;52.150;4.768;2024-02-26T06:34:25;21.25;;;16.35;;
16314;SDS011;8266;52.150;4.768;2024-02-26T06:36:52;17.85;;;15.35;;
16314;SDS011;8266;52.150;4.768;2024-02-26T06:39:21;18.55;;;16.25;;
16314;SDS011;8266;52.150;4.768;2024-02-26T06:41:48;20.65;;;16.95;;
16314;SDS011;8266;52.150;4.768;2024-02-26T06:44:15;16.85;;;14.68;;
16314;SDS011;8266;52.150;4.768;2024-02-26T06:46:42;18.52;;;15.77;;
16314;SDS011;8266;52.150;4.768;2024-02-26T06:49:09;19.23;;;16.77;;
16314;SDS011;8266;52.150;4.768;2024-02-26T06:51:36;17.77;;;15.88;;
16314;SDS011;8266;52.150;4.768;2024-02-26T06:54:03;18.63;;;16.63;;
16314;SDS011;8266;52.150;4.768;2024-02-26T06:56:32;18.42;;;16.40;;
16314;SDS011;8266;52.150;4.768;2024-02-26T06:58:59;17.27;;;15.32;;
16314;SDS011;8266;52.150;4.768;2024-02-26T07:01:26;18.60;;;16.63;;
16314;SDS011;8266;52.150;4.768;2024-02-26T07:03:53;18.90;;;16.20;;
16314;SDS011;8266;52.150;4.768;2024-02-26T07:06:20;17.83;;;15.40;;
16314;SDS011;8266;52.150;4.768;2024-02-26T07:08:47;19.23;;;17.33;;
16314;SDS011;8266;52.150;4.768;2024-02-26T07:11:14;18.15;;;16.25;;
16314;SDS011;8266;52.150;4.768;2024-02-26T07:13:42;18.42;;;16.45;;
16314;SDS011;8266;52.150;4.768;2024-02-26T07:16:09;17.83;;;15.93;;
16314;SDS011;8266;52.150;4.768;2024-02-26T07:18:37;17.85;;;15.95;;
16314;SDS011;8266;52.150;4.768;2024-02-26T07:21:04;17.17;;;15.38;;
16314;SDS011;8266;52.150;4.768;2024-02-26T07:23:31;17.88;;;15.93;;
16314;SDS011;8266;52.150;4.768;2024-02-26T07:25:59;16.73;;;15.07;;
16314;SDS011;8266;52.150;4.768;2024-02-26T07:28:26;16.88;;;15.18;;
16314;SDS011;8266;52.150;4.768;2024-02-26T07:30:54;15.75;;;14.07;;
16314;SDS011;8266;52.150;4.768;2024-02-26T07:33:21;14.70;;;13.18;;
16314;SDS011;8266;52.150;4.768;2024-02-26T07:35:48;14.45;;;12.95;;
16314;SDS011;8266;52.150;4.768;2024-02-26T07:38:15;14.00;;;12.70;;
16314;SDS011;8266;52.150;4.768;2024-02-26T07:40:42;13.82;;;12.43;;
16314;SDS011;8266;52.150;4.768;2024-02-26T07:43:10;12.93;;;11.63;;
16314;SDS011;8266;52.150;4.768;2024-02-26T07:45:37;12.95;;;11.65;;
16314;SDS011;8266;52.150;4.768;2024-02-26T07:48:06;12.15;;;10.70;;
16314;SDS011;8266;52.150;4.768;2024-02-26T07:50:33;12.55;;;11.25;;
16314;SDS011;8266;52.150;4.768;2024-02-26T07:53:00;12.57;;;11.27;;
16314;SDS011;8266;52.150;4.768;2024-02-26T07:55:27;12.25;;;10.93;;
16314;SDS011;8266;52.150;4.768;2024-02-26T07:57:54;10.70;;;9.63;;
16314;SDS011;8266;52.150;4.768;2024-02-26T08:00:21;11.52;;;10.15;;
16314;SDS011;8266;52.150;4.768;2024-02-26T08:02:48;10.68;;;9.57;;
16314;SDS011;8266;52.150;4.768;2024-02-26T08:05:17;10.90;;;9.85;;
16314;SDS011;8266;52.150;4.768;2024-02-26T08:07:44;10.55;;;9.50;;
16314;SDS011;8266;52.150;4.768;2024-02-26T08:10:11;9.95;;;8.88;;
16314;SDS011;8266;52.150;4.768;2024-02-26T08:12:38;11.45;;;9.98;;
16314;SDS011;8266;52.150;4.768;2024-02-26T08:15:06;10.60;;;9.10;;
16314;SDS011;8266;52.150;4.768;2024-02-26T08:17:34;10.00;;;9.00;;
16314;SDS011;8266;52.150;4.768;2024-02-26T08:20:01;9.77;;;8.02;;
16314;SDS011;8266;52.150;4.768;2024-02-26T08:22:30;8.95;;;8.02;;
16314;SDS011;8266;52.150;4.768;2024-02-26T08:24:58;8.98;;;7.63;;
16314;SDS011;8266;52.150;4.768;2024-02-26T08:27:28;9.02;;;8.20;;
16314;SDS011;8266;52.150;4.768;2024-02-26T08:29:55;8.98;;;8.07;;
16314;SDS011;8266;52.150;4.768;2024-02-26T08:32:22;8.18;;;7.38;;
16314;SDS011;8266;52.150;4.768;2024-02-26T08:34:49;7.75;;;7.05;;
16314;SDS011;8266;52.150;4.768;2024-02-26T08:37:16;7.85;;;7.03;;
16314;SDS011;8266;52.150;4.768;2024-02-26T08:39:44;6.93;;;6.32;;
16314;SDS011;8266;52.150;4.768;2024-02-26T08:42:12;7.65;;;6.85;;
16314;SDS011;8266;52.150;4.768;2024-02-26T08:44:39;7.28;;;6.47;;
16314;SDS011;8266;52.150;4.768;2024-02-26T08:47:06;9.48;;;7.10;;
16314;SDS011;8266;52.150;4.768;2024-02-26T08:49:33;6.30;;;5.70;;
16314;SDS011;8266;52.150;4.768;2024-02-26T08:52:00;7.50;;;6.80;;
16314;SDS011;8266;52.150;4.768;2024-02-26T08:54:27;6.90;;;6.22;;
16314;SDS011;8266;52.150;4.768;2024-02-26T08:56:55;6.80;;;6.10;;
16314;SDS011;8266;52.150;4.768;2024-02-26T08:59:22;6.57;;;5.93;;
16314;SDS011;8266;52.150;4.768;2024-02-26T09:01:49;6.30;;;5.70;;
16314;SDS011;8266;52.150;4.768;2024-02-26T09:04:16;6.07;;;5.47;;
16314;SDS011;8266;52.150;4.768;2024-02-26T09:06:43;5.35;;;4.85;;
16314;SDS011;8266;52.150;4.768;2024-02-26T09:09:11;8.13;;;5.50;;
16314;SDS011;8266;52.150;4.768;2024-02-26T09:11:38;6.28;;;5.68;;
16314;SDS011;8266;52.150;4.768;2024-02-26T09:14:07;5.40;;;4.90;;
16314;SDS011;8266;52.150;4.768;2024-02-26T09:16:34;5.53;;;5.03;;
16314;SDS011;8266;52.150;4.768;2024-02-26T09:19:01;5.93;;;5.30;;
16314;SDS011;8266;52.150;4.768;2024-02-26T09:21:29;4.75;;;4.35;;
16314;SDS011;8266;52.150;4.768;2024-02-26T09:23:56;5.30;;;4.80;;
16314;SDS011;8266;52.150;4.768;2024-02-26T09:26:23;5.25;;;4.72;;
16314;SDS011;8266;52.150;4.768;2024-02-26T09:28:50;5.18;;;4.68;;
16314;SDS011;8266;52.150;4.768;2024-02-26T09:31:18;5.10;;;4.60;;
16314;SDS011;8266;52.150;4.768;2024-02-26T09:33:46;5.57;;;4.95;;
16314;SDS011;8266;52.150;4.768;2024-02-26T09:36:13;5.47;;;4.97;;
16314;SDS011;8266;52.150;4.768;2024-02-26T09:38:40;5.97;;;5.18;;
16314;SDS011;8266;52.150;4.768;2024-02-26T09:41:07;5.95;;;5.45;;
16314;SDS011;8266;52.150;4.768;2024-02-26T09:43:42;5.45;;;4.95;;
16314;SDS011;8266;52.150;4.768;2024-02-26T09:46:11;5.45;;;4.95;;
16314;SDS011;8266;52.150;4.768;2024-02-26T09:48:40;6.20;;;5.53;;
16314;SDS011;8266;52.150;4.768;2024-02-26T09:51:10;5.70;;;5.10;;
16314;SDS011;8266;52.150;4.768;2024-02-26T09:53:38;5.70;;;5.20;;
16314;SDS011;8266;52.150;4.768;2024-02-26T09:56:09;4.95;;;4.50;;
16314;SDS011;8266;52.150;4.768;2024-02-26T09:58:37;6.18;;;5.00;;
16314;SDS011;8266;52.150;4.768;2024-02-26T10:01:08;5.68;;;4.78;;
16314;SDS011;8266;52.150;4.768;2024-02-26T10:03:41;5.38;;;4.88;;
16314;SDS011;8266;52.150;4.768;2024-02-26T10:06:10;5.35;;;4.60;;
16314;SDS011;8266;52.150;4.768;2024-02-26T10:08:37;5.63;;;5.13;;
16314;SDS011;8266;52.150;4.768;2024-02-26T10:11:04;6.00;;;5.38;;
16314;SDS011;8266;52.150;4.768;2024-02-26T10:13:35;5.80;;;5.20;;
16314;SDS011;8266;52.150;4.768;2024-02-26T10:16:03;5.38;;;4.88;;
16314;SDS011;8266;52.150;4.768;2024-02-26T10:18:46;5.13;;;4.63;;
16314;SDS011;8266;52.150;4.768;2024-02-26T10:21:13;5.40;;;4.90;;
16314;SDS011;8266;52.150;4.768;2024-02-26T10:23:43;7.43;;;5.43;;
16314;SDS011;8266;52.150;4.768;2024-02-26T10:26:10;5.93;;;5.20;;
16314;SDS011;8266;52.150;4.768;2024-02-26T10:28:39;5.53;;;5.03;;
16314;SDS011;8266;52.150;4.768;2024-02-26T10:31:06;5.18;;;4.68;;
16314;SDS011;8266;52.150;4.768;2024-02-26T10:33:34;5.85;;;5.20;;
16314;SDS011;8266;52.150;4.768;2024-02-26T10:36:04;5.93;;;5.25;;
16314;SDS011;8266;52.150;4.768;2024-02-26T10:38:32;6.68;;;4.65;;
16314;SDS011;8266;52.150;4.768;2024-02-26T10:40:59;5.63;;;5.13;;
16314;SDS011;8266;52.150;4.768;2024-02-26T10:43:26;5.70;;;4.93;;
16314;SDS011;8266;52.150;4.768;2024-02-26T10:45:54;5.43;;;4.93;;
16314;SDS011;8266;52.150;4.768;2024-02-26T10:48:21;6.05;;;5.35;;
16314;SDS011;8266;52.150;4.768;2024-02-26T10:50:48;6.65;;;5.40;;
16314;SDS011;8266;52.150;4.768;2024-02-26T10:53:19;5.57;;;4.93;;
16314;SDS011;8266;52.150;4.768;2024-02-26T10:55:49;5.82;;;5.32;;
16314;SDS011;8266;52.150;4.768;2024-02-26T10:58:21;5.88;;;4.95;;
16314;SDS011;8266;52.150;4.768;2024-02-26T11:00:50;5.55;;;5.05;;
16314;SDS011;8266;52.150;4.768;2024-02-26T11:03:18;6.07;;;4.70;;
16314;SDS011;8266;52.150;4.768;2024-02-26T11:05:46;6.10;;;5.45;;
16314;SDS011;8266;52.150;4.768;2024-02-26T11:08:15;5.63;;;5.13;;
16314;SDS011;8266;52.150;4.768;2024-02-26T11:10:44;5.93;;;5.30;;
16314;SDS011;8266;52.150;4.768;2024-02-26T11:13:14;5.50;;;5.00;;
16314;SDS011;8266;52.150;4.768;2024-02-26T11:15:44;5.18;;;4.68;;
16314;SDS011;8266;52.150;4.768;2024-02-26T11:18:14;6.72;;;5.18;;
16314;SDS011;8266;52.150;4.768;2024-02-26T11:20:41;5.57;;;4.85;;
16314;SDS011;8266;52.150;4.768;2024-02-26T11:23:09;6.80;;;5.68;;
16314;SDS011;8266;52.150;4.768;2024-02-26T11:25:38;6.05;;;4.75;;
16314;SDS011;8266;52.150;4.768;2024-02-26T11:28:06;5.65;;;5.03;;
16314;SDS011;8266;52.150;4.768;2024-02-26T11:30:38;5.68;;;4.68;;
16314;SDS011;8266;52.150;4.768;2024-02-26T11:33:09;5.28;;;4.75;;
16314;SDS011;8266;52.150;4.768;2024-02-26T11:35:37;5.13;;;4.72;;
16314;SDS011;8266;52.150;4.768;2024-02-26T11:38:05;6.47;;;4.90;;
16314;SDS011;8266;52.150;4.768;2024-02-26T11:40:33;5.72;;;4.22;;
16314;SDS011;8266;52.150;4.768;2024-02-26T11:43:06;5.15;;;4.65;;
16314;SDS011;8266;52.150;4.768;2024-02-26T11:45:51;7.82;;;4.20;;
16314;SDS011;8266;52.150;4.768;2024-02-26T11:48:20;4.30;;;3.90;;
16314;SDS011;8266;52.150;4.768;2024-02-26T11:50:48;4.82;;;3.47;;
16314;SDS011;8266;52.150;4.768;2024-02-26T11:53:20;4.13;;;3.72;;
16314;SDS011;8266;52.150;4.768;2024-02-26T11:58:47;3.33;;;3.03;;
16314;SDS011;8266;52.150;4.768;2024-02-26T12:04:05;4.25;;;3.28;;
16314;SDS011;8266;52.150;4.768;2024-02-26T12:06:43;4.30;;;3.45;;
16314;SDS011;8266;52.150;4.768;2024-02-26T12:09:33;4.82;;;3.42;;
16314;SDS011;8266;52.150;4.768;2024-02-26T12:12:01;3.42;;;3.13;;
16314;SDS011;8266;52.150;4.768;2024-02-26T12:14:32;3.67;;;3.35;;
16314;SDS011;8266;52.150;4.768;2024-02-26T12:17:00;3.40;;;3.10;;
16314;SDS011;8266;52.150;4.768;2024-02-26T12:19:32;3.05;;;2.75;;
16314;SDS011;8266;52.150;4.768;2024-02-26T12:22:00;3.70;;;3.08;;
16314;SDS011;8266;52.150;4.768;2024-02-26T12:24:27;4.32;;;3.10;;
16314;SDS011;8266;52.150;4.768;2024-02-26T12:26:54;4.50;;;3.30;;
16314;SDS011;8266;52.150;4.768;2024-02-26T12:29:23;4.95;;;3.20;;
16314;SDS011;8266;52.150;4.768;2024-02-26T12:31:51;3.08;;;2.80;;
16314;SDS011;8266;52.150;4.768;2024-02-26T12:34:19;3.30;;;3.00;;
16314;SDS011;8266;52.150;4.768;2024-02-26T12:36:46;3.88;;;3.15;;
16314;SDS011;8266;52.150;4.768;2024-02-26T12:39:13;2.88;;;2.60;;
16314;SDS011;8266;52.150;4.768;2024-02-26T12:41:40;3.70;;;3.30;;
16314;SDS011;8266;52.150;4.768;2024-02-26T12:44:14;3.58;;;2.92;;
16314;SDS011;8266;52.150;4.768;2024-02-26T12:46:42;3.58;;;3.13;;
16314;SDS011;8266;52.150;4.768;2024-02-26T12:49:10;4.35;;;3.28;;
16314;SDS011;8266;52.150;4.768;2024-02-26T12:51:41;4.07;;;3.25;;
16314;SDS011;8266;52.150;4.768;2024-02-26T12:54:09;7.57;;;3.22;;
16314;SDS011;8266;52.150;4.768;2024-02-26T12:56:37;3.17;;;2.75;;
16314;SDS011;8266;52.150;4.768;2024-02-26T12:59:04;2.70;;;2.50;;
16314;SDS011;8266;52.150;4.768;2024-02-26T13:01:31;3.72;;;3.00;;
16314;SDS011;8266;52.150;4.768;2024-02-26T13:03:59;3.25;;;2.60;;
16314;SDS011;8266;52.150;4.768;2024-02-26T13:06:33;2.58;;;2.38;;
16314;SDS011;8266;52.150;4.768;2024-02-26T13:09:00;2.90;;;2.65;;
16314;SDS011;8266;52.150;4.768;2024-02-26T13:11:28;3.42;;;2.75;;
16314;SDS011;8266;52.150;4.768;2024-02-26T13:13:56;3.00;;;2.70;;
16314;SDS011;8266;52.150;4.768;2024-02-26T13:16:24;3.00;;;2.63;;
16314;SDS011;8266;52.150;4.768;2024-02-26T13:18:51;4.72;;;2.80;;
16314;SDS011;8266;52.150;4.768;2024-02-26T13:21:18;3.15;;;2.45;;
16314;SDS011;8266;52.150;4.768;2024-02-26T13:23:52;3.40;;;2.58;;
16314;SDS011;8266;52.150;4.768;2024-02-26T13:26:21;4.43;;;3.03;;
16314;SDS011;8266;52.150;4.768;2024-02-26T13:28:58;2.70;;;2.25;;
16314;SDS011;8266;52.150;4.768;2024-02-26T13:31:26;2.65;;;2.45;;
16314;SDS011;8266;52.150;4.768;2024-02-26T13:33:53;3.60;;;2.80;;
16314;SDS011;8266;52.150;4.768;2024-02-26T13:36:21;2.90;;;2.40;;
16314;SDS011;8266;52.150;4.768;2024-02-26T13:38:52;2.40;;;2.20;;
16314;SDS011;8266;52.150;4.768;2024-02-26T13:41:20;3.70;;;2.28;;
16314;SDS011;8266;52.150;4.768;2024-02-26T13:43:47;4.07;;;2.58;;
16314;SDS011;8266;52.150;4.768;2024-02-26T13:46:14;4.88;;;2.65;;
16314;SDS011;8266;52.150;4.768;2024-02-26T13:48:42;2.50;;;2.30;;
16314;SDS011;8266;52.150;4.768;2024-02-26T13:51:08;3.90;;;2.45;;
16314;SDS011;8266;52.150;4.768;2024-02-26T13:53:35;2.58;;;1.80;;
16314;SDS011;8266;52.150;4.768;2024-02-26T13:56:04;4.50;;;2.47;;
16314;SDS011;8266;52.150;4.768;2024-02-26T13:58:32;2.67;;;1.95;;
16314;SDS011;8266;52.150;4.768;2024-02-26T14:00:59;3.58;;;2.05;;
16314;SDS011;8266;52.150;4.768;2024-02-26T14:03:28;4.72;;;2.70;;
16314;SDS011;8266;52.150;4.768;2024-02-26T14:05:55;2.35;;;1.88;;
16314;SDS011;8266;52.150;4.768;2024-02-26T14:08:23;3.25;;;2.47;;
16314;SDS011;8266;52.150;4.768;2024-02-26T14:10:50;2.88;;;2.05;;
16314;SDS011;8266;52.150;4.768;2024-02-26T14:13:19;3.15;;;2.53;;
16314;SDS011;8266;52.150;4.768;2024-02-26T14:15:46;2.45;;;2.25;;
16314;SDS011;8266;52.150;4.768;2024-02-26T14:18:13;3.53;;;2.50;;
16314;SDS011;8266;52.150;4.768;2024-02-26T14:20:40;3.58;;;2.38;;
16314;SDS011;8266;52.150;4.768;2024-02-26T14:23:07;3.63;;;2.30;;
16314;SDS011;8266;52.150;4.768;2024-02-26T14:25:34;3.67;;;2.50;;
16314;SDS011;8266;52.150;4.768;2024-02-26T14:28:01;2.97;;;2.53;;
16314;SDS011;8266;52.150;4.768;2024-02-26T14:30:30;3.22;;;2.90;;
16314;SDS011;8266;52.150;4.768;2024-02-26T14:32:57;3.63;;;2.75;;
16314;SDS011;8266;52.150;4.768;2024-02-26T14:35:24;3.75;;;3.05;;
16314;SDS011;8266;52.150;4.768;2024-02-26T14:37:52;4.68;;;3.38;;
16314;SDS011;8266;52.150;4.768;2024-02-26T14:40:20;7.10;;;3.42;;
16314;SDS011;8266;52.150;4.768;2024-02-26T14:42:47;4.10;;;2.97;;
16314;SDS011;8266;52.150;4.768;2024-02-26T14:45:14;3.55;;;3.03;;
16314;SDS011;8266;52.150;4.768;2024-02-26T14:47:43;4.45;;;3.20;;
16314;SDS011;8266;52.150;4.768;2024-02-26T14:50:10;4.20;;;3.85;;
16314;SDS011;8266;52.150;4.768;2024-02-26T14:52:37;6.93;;;4.07;;
16314;SDS011;8266;52.150;4.768;2024-02-26T14:55:04;4.45;;;4.00;;
16314;SDS011;8266;52.150;4.768;2024-02-26T14:57:32;5.05;;;3.63;;
16314;SDS011;8266;52.150;4.768;2024-02-26T14:59:59;4.72;;;3.08;;
16314;SDS011;8266;52.150;4.768;2024-02-26T15:02:30;5.07;;;3.45;;
16314;SDS011;8266;52.150;4.768;2024-02-26T15:04:59;4.78;;;3.83;;